createdAt,value
2018-05-25T00:01:44.646Z,21.00
2018-05-25T00:04:12.121Z,21.37
2018-05-25T00:06:40.964Z,20.83
2018-05-25T00:09:08.427Z,19.37
2018-05-25T00:11:35.904Z,21.07
2018-05-25T00:14:03.359Z,21.20
2018-05-25T00:16:30.849Z,20.57
2018-05-25T00:18:59.068Z,19.10
2018-05-25T00:21:26.555Z,19.07
2018-05-25T00:23:54.044Z,19.33
2018-05-25T00:26:22.283Z,20.23
2018-05-25T00:28:50.174Z,19.00
2018-05-25T00:31:18.399Z,20.33
2018-05-25T00:33:45.888Z,19.30
2018-05-25T00:36:13.358Z,21.87
2018-05-25T00:38:40.824Z,20.83
2018-05-25T00:41:09.075Z,21.43
2018-05-25T00:43:36.563Z,22.07
2018-05-25T00:46:04.779Z,22.07
2018-05-25T00:48:32.248Z,23.60
2018-05-25T00:50:59.708Z,23.20
2018-05-25T00:53:27.195Z,22.40
2018-05-25T00:55:55.427Z,24.40
2018-05-25T00:58:22.924Z,23.83
2018-05-25T01:00:50.408Z,23.83
2018-05-25T01:03:18.671Z,25.73
2018-05-25T01:05:46.895Z,25.57
2018-05-25T01:08:14.372Z,27.40
2018-05-25T01:10:41.859Z,26.67
2018-05-25T01:13:10.097Z,22.87
2018-05-25T01:15:38.007Z,23.77
2018-05-25T01:18:06.275Z,24.70
2018-05-25T01:20:33.736Z,23.47
2018-05-25T01:23:01.988Z,26.27
2018-05-25T01:25:29.804Z,23.70
2018-05-25T01:27:57.544Z,26.93
2018-05-25T01:30:25.784Z,28.03
2018-05-25T01:32:53.799Z,26.33
2018-05-25T01:35:22.056Z,27.23
2018-05-25T01:37:49.546Z,28.47
2018-05-25T01:40:17.036Z,27.80
2018-05-25T01:42:44.519Z,30.17
2018-05-25T01:45:11.967Z,30.37
2018-05-25T01:47:40.285Z,30.33
2018-05-25T01:50:09.132Z,30.90
2018-05-25T01:52:36.636Z,31.10
2018-05-25T01:55:04.103Z,31.20
2018-05-25T01:57:31.572Z,31.97
2018-05-25T01:59:59.068Z,31.50
2018-05-25T02:02:26.788Z,32.27
2018-05-25T02:04:54.276Z,32.90
2018-05-25T02:07:22.314Z,33.23
2018-05-25T02:09:49.811Z,32.63
2018-05-25T02:12:17.296Z,31.80
2018-05-25T02:14:45.564Z,31.83
2018-05-25T02:17:13.613Z,29.57
2018-05-25T02:19:41.530Z,32.67
2018-05-25T02:22:09.017Z,33.00
2018-05-25T02:24:43.162Z,31.67
2018-05-25T02:27:11.475Z,33.67
2018-05-25T02:29:38.945Z,34.23
2018-05-25T02:32:06.555Z,31.57
2018-05-25T02:34:34.628Z,33.40
2018-05-25T02:37:02.108Z,36.57
2018-05-25T02:39:31.139Z,34.90
2018-05-25T02:41:58.697Z,37.07
2018-05-25T02:44:26.400Z,35.43
2018-05-25T02:46:53.855Z,35.90
2018-05-25T02:49:21.785Z,35.13
2018-05-25T02:51:49.575Z,36.03
2018-05-25T02:54:17.041Z,35.93
2018-05-25T02:56:45.084Z,36.60
2018-05-25T02:59:14.997Z,37.70
2018-05-25T03:01:42.913Z,34.83
2018-05-25T03:04:11.595Z,33.03
2018-05-25T03:06:39.052Z,34.87
2018-05-25T03:09:09.104Z,35.73
2018-05-25T03:11:37.350Z,36.53
2018-05-25T03:14:04.815Z,34.33
2018-05-25T03:16:33.336Z,38.33
2018-05-25T03:19:00.819Z,37.50
2018-05-25T03:21:28.305Z,36.07
2018-05-25T03:23:55.775Z,37.77
2018-05-25T03:26:24.038Z,40.13
2018-05-25T03:28:51.535Z,36.80
2018-05-25T03:31:19.024Z,36.53
2018-05-25T03:33:46.953Z,35.23
2018-05-25T03:36:14.455Z,33.93
2018-05-25T03:38:41.944Z,33.50
2018-05-25T03:41:10.193Z,34.97
2018-05-25T03:43:37.682Z,34.70
2018-05-25T03:46:06.512Z,32.10
2018-05-25T03:48:34.679Z,32.67
2018-05-25T03:51:02.176Z,34.57
2018-05-25T03:53:31.553Z,36.30
2018-05-25T03:55:59.748Z,35.63
2018-05-25T03:58:39.109Z,33.87
2018-05-25T04:01:19.344Z,35.67
2018-05-25T04:03:46.973Z,35.17
2018-05-25T04:06:14.432Z,34.23
2018-05-25T04:08:42.477Z,37.13
2018-05-25T04:11:10.446Z,38.47
2018-05-25T04:13:40.463Z,35.47
2018-05-25T04:16:08.711Z,36.47
2018-05-25T04:18:36.209Z,39.67
2018-05-25T04:21:03.718Z,39.20
2018-05-25T04:23:31.168Z,40.53
2018-05-25T04:25:58.637Z,40.80
2018-05-25T04:28:26.132Z,39.87
2018-05-25T04:30:53.601Z,39.30
2018-05-25T04:33:22.048Z,36.73
2018-05-25T04:35:50.724Z,38.63
2018-05-25T04:38:18.180Z,35.87
2018-05-25T04:40:46.458Z,36.30
2018-05-25T04:43:13.983Z,37.27
2018-05-25T04:45:41.413Z,34.77
2018-05-25T04:48:08.864Z,34.37
2018-05-25T04:50:36.897Z,32.77
2018-05-25T04:53:04.396Z,34.40
2018-05-25T04:55:31.849Z,33.03
2018-05-25T04:57:59.348Z,33.00
2018-05-25T05:00:26.897Z,33.13
2018-05-25T05:02:54.388Z,32.17
2018-05-25T05:05:22.382Z,33.30
2018-05-25T05:07:54.720Z,33.00
2018-05-25T05:10:22.219Z,32.80
2018-05-25T05:12:49.735Z,32.93
2018-05-25T05:15:17.230Z,33.50
2018-05-25T05:17:44.683Z,32.17
2018-05-25T05:20:12.149Z,33.07
2018-05-25T05:22:39.667Z,32.73
2018-05-25T05:25:09.144Z,32.83
2018-05-25T05:27:36.613Z,34.30
2018-05-25T05:30:04.219Z,31.87
2018-05-25T05:32:32.471Z,30.70
2018-05-25T05:34:59.964Z,31.20
2018-05-25T05:37:27.460Z,30.10
2018-05-25T05:39:55.740Z,29.60
2018-05-25T05:42:23.406Z,26.70
2018-05-25T05:44:50.909Z,28.53
2018-05-25T05:47:18.400Z,28.67
2018-05-25T05:49:45.868Z,28.67
2018-05-25T05:52:13.332Z,29.92
2018-05-25T05:54:40.831Z,27.67
2018-05-25T05:57:10.085Z,27.30
2018-05-25T05:59:37.556Z,27.70
2018-05-25T06:02:05.028Z,26.60
2018-05-25T06:04:32.528Z,25.30
2018-05-25T06:07:00.097Z,25.23
2018-05-25T06:09:27.597Z,24.17
2018-05-25T06:11:55.077Z,25.48
2018-05-25T06:14:23.311Z,24.77
2018-05-25T06:16:50.802Z,23.87
2018-05-25T06:19:19.037Z,25.88
2018-05-25T06:21:46.521Z,25.02
2018-05-25T06:24:14.026Z,25.80
2018-05-25T06:26:41.912Z,24.02
2018-05-25T06:29:09.916Z,25.37
2018-05-25T06:31:38.045Z,24.37
2018-05-25T06:34:05.723Z,23.92
2018-05-25T06:36:33.923Z,25.08
2018-05-25T06:39:01.697Z,24.60
2018-05-25T06:41:29.180Z,23.65
2018-05-25T06:43:57.229Z,22.75
2018-05-25T06:46:26.040Z,21.55
2018-05-25T06:48:54.304Z,21.35
2018-05-25T06:51:22.894Z,21.23
2018-05-25T06:53:52.476Z,22.08
2018-05-25T06:56:19.953Z,21.90
2018-05-25T06:58:49.001Z,23.02
2018-05-25T07:01:16.714Z,23.80
2018-05-25T07:03:44.937Z,22.73
2018-05-25T07:06:12.423Z,24.40
2018-05-25T07:08:40.444Z,23.38
2018-05-25T07:11:07.944Z,23.98
2018-05-25T07:13:52.488Z,22.77
2018-05-25T07:16:20.390Z,22.60
2018-05-25T07:18:48.657Z,23.58
2018-05-25T07:21:16.120Z,24.42
2018-05-25T07:23:44.361Z,24.12
2018-05-25T07:26:12.092Z,21.40
2018-05-25T07:28:39.675Z,21.50
2018-05-25T07:31:07.178Z,22.08
2018-05-25T07:33:35.445Z,21.92
2018-05-25T07:36:03.168Z,22.73
2018-05-25T07:38:30.692Z,20.70
2018-05-25T07:40:58.934Z,21.30
2018-05-25T07:43:26.551Z,20.73
2018-05-25T07:45:54.525Z,20.05
2018-05-25T07:48:22.531Z,19.27
2018-05-25T07:50:50.873Z,19.92
2018-05-25T07:53:18.773Z,20.25
2018-05-25T07:55:46.268Z,20.27
2018-05-25T07:58:14.595Z,21.58
2018-05-25T08:00:42.717Z,20.67
2018-05-25T08:03:11.739Z,19.52
2018-05-25T08:05:39.251Z,19.27
2018-05-25T08:08:07.486Z,19.15
2018-05-25T08:10:35.573Z,21.05
2018-05-25T08:13:03.064Z,20.75
2018-05-25T08:15:31.340Z,18.52
2018-05-25T08:17:59.570Z,17.80
2018-05-25T08:20:27.076Z,19.02
2018-05-25T08:22:55.316Z,17.58
2018-05-25T08:25:22.781Z,16.62
2018-05-25T08:27:50.649Z,18.80
2018-05-25T08:30:18.137Z,20.00
2018-05-25T08:32:45.619Z,19.30
2018-05-25T08:35:13.265Z,19.92
2018-05-25T08:37:40.722Z,20.20
2018-05-25T08:40:08.344Z,19.12
2018-05-25T08:42:36.400Z,18.83
2018-05-25T08:45:03.918Z,17.27
2018-05-25T08:47:31.417Z,19.83
2018-05-25T08:49:59.171Z,18.27
2018-05-25T08:52:26.942Z,17.42
2018-05-25T08:54:55.161Z,18.52
2018-05-25T08:57:23.431Z,16.37
2018-05-25T08:59:51.668Z,17.12
2018-05-25T09:02:19.553Z,17.95
2018-05-25T09:04:47.055Z,15.38
2018-05-25T09:07:14.537Z,14.52
2018-05-25T09:09:42.797Z,17.60
2018-05-25T09:12:10.288Z,16.87
2018-05-25T09:14:39.032Z,17.08
2018-05-25T09:17:06.526Z,15.27
2018-05-25T09:19:34.006Z,18.98
2018-05-25T09:22:01.578Z,14.75
2018-05-25T09:24:29.869Z,15.90
2018-05-25T09:26:58.108Z,17.50
2018-05-25T09:29:25.600Z,14.23
2018-05-25T09:31:54.576Z,13.82
2018-05-25T09:34:22.067Z,16.73
2018-05-25T09:36:50.100Z,15.65
2018-05-25T09:39:17.588Z,16.95
2018-05-25T09:41:45.830Z,14.98
2018-05-25T09:44:13.304Z,13.85
2018-05-25T09:46:42.032Z,14.00
2018-05-25T09:49:12.003Z,14.73
2018-05-25T09:51:39.464Z,17.00
2018-05-25T09:54:10.303Z,14.95
2018-05-25T09:56:38.540Z,14.87
2018-05-25T09:59:06.211Z,12.68
2018-05-25T10:01:34.239Z,14.13
2018-05-25T10:04:01.753Z,11.77
2018-05-25T10:06:29.573Z,14.87
2018-05-25T10:08:57.077Z,13.02
2018-05-25T10:11:24.529Z,10.02
2018-05-25T10:13:52.579Z,11.00
2018-05-25T10:16:20.092Z,12.90
2018-05-25T10:18:48.316Z,11.63
2018-05-25T10:21:15.828Z,12.52
2018-05-25T10:23:44.832Z,10.98
2018-05-25T10:26:12.343Z,12.50
2018-05-25T10:28:40.684Z,12.00
2018-05-25T10:31:08.182Z,11.82
2018-05-25T10:33:35.652Z,12.60
2018-05-25T10:36:04.564Z,11.50
2018-05-25T10:38:33.422Z,10.75
2018-05-25T10:41:01.417Z,11.55
2018-05-25T10:43:32.357Z,10.98
2018-05-25T10:46:00.958Z,13.10
2018-05-25T10:48:28.480Z,8.10
2018-05-25T10:50:56.527Z,10.13
2018-05-25T10:53:24.447Z,10.35
2018-05-25T10:55:52.524Z,9.65
2018-05-25T10:58:19.960Z,9.75
2018-05-25T11:00:48.237Z,9.88
2018-05-25T11:03:21.637Z,10.43
2018-05-25T11:05:49.883Z,9.70
2018-05-25T11:08:17.371Z,9.68
2018-05-25T11:10:45.593Z,9.93
2018-05-25T11:13:13.053Z,8.27
2018-05-25T11:15:40.521Z,11.18
2018-05-25T11:18:08.543Z,10.00
2018-05-25T11:20:36.456Z,10.68
2018-05-25T11:23:03.959Z,8.73
2018-05-25T11:25:31.416Z,7.97
2018-05-25T11:27:58.999Z,11.05
2018-05-25T11:30:27.053Z,10.52
2018-05-25T11:32:55.308Z,10.60
2018-05-25T11:35:26.082Z,9.65
2018-05-25T11:37:53.855Z,8.35
2018-05-25T11:40:21.479Z,8.40
2018-05-25T11:42:49.744Z,9.60
2018-05-25T11:45:17.979Z,10.00
2018-05-25T11:47:45.494Z,10.13
2018-05-25T11:50:13.733Z,8.30
2018-05-25T11:52:41.280Z,9.90
2018-05-25T11:55:08.771Z,7.65
2018-05-25T11:57:38.095Z,7.57
2018-05-25T12:00:05.589Z,8.90
2018-05-25T12:02:33.119Z,9.00
2018-05-25T12:05:00.637Z,9.07
2018-05-25T12:07:28.896Z,9.38
2018-05-25T12:09:56.360Z,10.18
2018-05-25T12:12:23.845Z,8.70
2018-05-25T12:14:52.118Z,8.57
2018-05-25T12:17:20.386Z,5.95
2018-05-25T12:19:49.260Z,6.65
2018-05-25T12:22:16.783Z,5.72
2018-05-25T12:24:44.243Z,7.07
2018-05-25T12:27:11.734Z,7.55
2018-05-25T12:29:39.306Z,7.53
2018-05-25T12:32:07.986Z,6.62
2018-05-25T12:34:35.501Z,7.32
2018-05-25T12:37:02.999Z,5.90
2018-05-25T12:39:30.896Z,5.70
2018-05-25T12:41:58.428Z,5.60
2018-05-25T12:44:25.992Z,6.53
2018-05-25T12:46:53.562Z,5.37
2018-05-25T12:49:22.166Z,5.32
2018-05-25T12:51:49.757Z,4.53
2018-05-25T12:54:17.243Z,4.50
2018-05-25T12:56:45.595Z,4.65
2018-05-25T12:59:13.059Z,4.15
2018-05-25T13:01:40.515Z,4.22
2018-05-25T13:04:09.072Z,4.85
2018-05-25T13:06:36.576Z,4.75
2018-05-25T13:09:04.093Z,3.83
2018-05-25T13:11:31.687Z,4.20
2018-05-25T13:13:59.312Z,4.65
2018-05-25T13:16:26.792Z,4.87
2018-05-25T13:18:54.296Z,4.57
2018-05-25T13:21:22.137Z,4.82
2018-05-25T13:23:49.622Z,4.72
2018-05-25T13:26:17.898Z,5.40
2018-05-25T13:28:46.713Z,5.82
2018-05-25T13:31:14.224Z,4.87
2018-05-25T13:33:41.853Z,5.97
2018-05-25T13:36:09.327Z,4.20
2018-05-25T13:38:36.945Z,4.62
2018-05-25T13:41:04.500Z,3.87
2018-05-25T13:43:32.024Z,4.75
2018-05-25T13:45:59.524Z,5.22
2018-05-25T13:48:26.997Z,5.22
2018-05-25T13:50:54.523Z,4.50
2018-05-25T13:53:22.760Z,4.90
2018-05-25T13:55:50.240Z,4.43
2018-05-25T13:58:18.957Z,4.62
2018-05-25T14:00:46.728Z,4.60
2018-05-25T14:03:14.208Z,3.72
2018-05-25T14:05:41.685Z,3.47
2018-05-25T14:08:09.573Z,3.70
2018-05-25T14:10:38.320Z,2.97
2018-05-25T14:13:05.795Z,3.83
2018-05-25T14:15:33.254Z,4.10
2018-05-25T14:18:00.734Z,4.53
2018-05-25T14:20:28.978Z,4.30
2018-05-25T14:22:56.497Z,3.78
2018-05-25T14:25:23.976Z,3.90
2018-05-25T14:27:51.519Z,4.00
2018-05-25T14:30:19.061Z,4.10
2018-05-25T14:32:47.308Z,4.05
2018-05-25T14:35:14.793Z,3.85
2018-05-25T14:37:43.016Z,3.75
2018-05-25T14:40:12.984Z,3.37
2018-05-25T14:42:41.237Z,3.10
2018-05-25T14:45:08.713Z,3.15
2018-05-25T14:47:37.573Z,3.05
2018-05-25T14:50:05.974Z,3.22
2018-05-25T14:52:34.218Z,3.50
2018-05-25T14:55:01.881Z,3.50
2018-05-25T14:57:29.405Z,3.37
2018-05-25T14:59:59.477Z,3.00
2018-05-25T15:02:27.164Z,3.00
2018-05-25T15:04:55.451Z,2.65
2018-05-25T15:07:22.900Z,3.67
2018-05-25T15:09:50.408Z,3.40
2018-05-25T15:12:17.959Z,3.50
2018-05-25T15:14:45.409Z,3.37
2018-05-25T15:17:12.875Z,2.33
2018-05-25T15:19:40.402Z,2.95
2018-05-25T15:22:07.940Z,3.03
2018-05-25T15:24:36.269Z,3.22
2018-05-25T15:27:04.379Z,3.60
2018-05-25T15:29:31.925Z,3.83
2018-05-25T15:32:02.095Z,3.67
2018-05-25T15:34:30.960Z,3.37
2018-05-25T15:36:59.233Z,3.35
2018-05-25T15:39:27.982Z,3.30
2018-05-25T15:41:55.843Z,3.17
2018-05-25T15:44:23.325Z,2.92
2018-05-25T15:46:52.206Z,3.35
2018-05-25T15:49:19.689Z,2.97
2018-05-25T15:51:47.938Z,3.40
2018-05-25T15:54:15.419Z,2.97
2018-05-25T15:56:43.632Z,3.67
2018-05-25T15:59:11.626Z,3.50
2018-05-25T16:01:39.111Z,3.55
2018-05-25T16:04:06.596Z,3.80
2018-05-25T16:06:34.849Z,3.47
2018-05-25T16:09:02.907Z,3.47
2018-05-25T16:11:30.371Z,3.90
2018-05-25T16:13:58.399Z,3.80
2018-05-25T16:16:26.105Z,3.47
2018-05-25T16:18:53.996Z,3.75
2018-05-25T16:21:22.313Z,4.18
2018-05-25T16:23:49.784Z,4.18
2018-05-25T16:26:17.253Z,4.97
2018-05-25T16:28:44.832Z,4.40
2018-05-25T16:31:12.304Z,4.18
2018-05-25T16:33:40.549Z,4.60
2018-05-25T16:36:09.079Z,4.35
2018-05-25T16:38:37.147Z,4.32
2018-05-25T16:41:05.072Z,4.10
2018-05-25T16:43:32.606Z,4.30
2018-05-25T16:46:00.627Z,4.40
2018-05-25T16:48:28.855Z,4.43
2018-05-25T16:50:56.315Z,4.80
2018-05-25T16:53:24.522Z,4.70
2018-05-25T16:55:51.995Z,4.40
2018-05-25T16:58:20.215Z,4.37
2018-05-25T17:00:47.698Z,5.03
2018-05-25T17:03:19.920Z,4.35
2018-05-25T17:05:47.390Z,4.60
2018-05-25T17:08:14.871Z,5.07
2018-05-25T17:10:42.441Z,5.10
2018-05-25T17:13:09.908Z,4.03
2018-05-25T17:15:37.498Z,4.10
2018-05-25T17:18:05.121Z,4.12
2018-05-25T17:20:32.674Z,4.30
2018-05-25T17:23:01.608Z,4.40
2018-05-25T17:25:30.480Z,4.37
2018-05-25T17:27:57.976Z,4.12
2018-05-25T17:30:26.145Z,4.97
2018-05-25T17:32:55.445Z,4.03
2018-05-25T17:35:22.888Z,4.20
2018-05-25T17:37:50.395Z,4.00
2018-05-25T17:40:17.851Z,4.20
2018-05-25T17:42:45.394Z,4.45
2018-05-25T17:45:12.852Z,4.10
2018-05-25T17:47:40.331Z,4.22
2018-05-25T17:50:07.817Z,4.00
2018-05-25T17:52:36.708Z,4.25
2018-05-25T17:55:04.956Z,4.28
2018-05-25T17:57:32.410Z,4.15
2018-05-25T18:00:00.772Z,4.65
2018-05-25T18:02:28.232Z,4.70
2018-05-25T18:04:55.785Z,4.40
2018-05-25T18:07:23.295Z,4.78
2018-05-25T18:09:52.539Z,4.35
2018-05-25T18:12:20.147Z,4.47
2018-05-25T18:14:47.642Z,4.62
2018-05-25T18:17:15.135Z,4.28
2018-05-25T18:19:42.879Z,4.20
2018-05-25T18:22:10.524Z,3.75
2018-05-25T18:24:38.035Z,3.95
2018-05-25T18:27:05.512Z,3.95
2018-05-25T18:29:33.782Z,3.55
2018-05-25T18:32:01.242Z,4.07
2018-05-25T18:34:29.525Z,4.10
2018-05-25T18:36:58.293Z,3.70
2018-05-25T18:39:25.925Z,3.80
2018-05-25T18:41:53.377Z,3.97
2018-05-25T18:44:24.004Z,4.22
2018-05-25T18:46:51.876Z,4.05
2018-05-25T18:49:30.569Z,3.80
2018-05-25T18:52:03.785Z,3.75
2018-05-25T18:54:33.727Z,3.67
2018-05-25T18:57:01.223Z,4.00
2018-05-25T18:59:29.476Z,3.50
2018-05-25T19:01:56.943Z,4.15
2018-05-25T19:04:25.241Z,3.55
2018-05-25T19:06:55.252Z,4.12
2018-05-25T19:09:23.501Z,3.97
2018-05-25T19:11:50.973Z,4.22
2018-05-25T19:14:19.235Z,4.05
2018-05-25T19:16:47.118Z,4.70
2018-05-25T19:19:16.092Z,4.97
2018-05-25T19:21:43.590Z,5.50
2018-05-25T19:24:11.048Z,5.22
2018-05-25T19:26:38.519Z,4.35
2018-05-25T19:29:06.751Z,4.57
2018-05-25T19:31:35.213Z,4.70
2018-05-25T19:34:02.692Z,4.82
2018-05-25T19:36:30.594Z,4.85
2018-05-25T19:38:58.078Z,5.43
2018-05-25T19:41:25.545Z,5.00
2018-05-25T19:43:53.008Z,4.70
2018-05-25T19:46:20.894Z,4.70
2018-05-25T19:48:48.430Z,4.97
2018-05-25T19:51:15.935Z,5.70
2018-05-25T19:53:44.732Z,5.50
2018-05-25T19:56:14.624Z,6.60
2018-05-25T19:58:43.093Z,6.97
2018-05-25T20:01:10.565Z,5.72
2018-05-25T20:03:38.832Z,5.53
2018-05-25T20:06:06.323Z,6.53
2018-05-25T20:08:33.835Z,6.40
2018-05-25T20:11:01.344Z,5.47
2018-05-25T20:13:28.812Z,5.93
2018-05-25T20:15:56.316Z,5.97
2018-05-25T20:18:24.565Z,5.85
2018-05-25T20:20:54.689Z,6.10
2018-05-25T20:23:22.178Z,5.53
2018-05-25T20:25:51.071Z,5.68
2018-05-25T20:28:18.676Z,5.43
2018-05-25T20:30:46.179Z,5.35
2018-05-25T20:33:13.682Z,5.20
2018-05-25T20:35:41.150Z,6.72
2018-05-25T20:38:10.561Z,5.78
2018-05-25T20:40:38.289Z,6.53
2018-05-25T20:43:07.077Z,6.20
2018-05-25T20:45:34.563Z,4.75
2018-05-25T20:48:02.548Z,4.75
2018-05-25T20:50:30.088Z,5.15
2018-05-25T20:52:57.556Z,5.22
2018-05-25T20:55:25.446Z,5.12
2018-05-25T20:57:52.920Z,5.27
2018-05-25T21:00:21.240Z,5.05
2018-05-25T21:02:49.193Z,5.40
2018-05-25T21:05:16.692Z,5.37
2018-05-25T21:07:44.165Z,5.68
2018-05-25T21:10:11.755Z,5.18
2018-05-25T21:12:39.992Z,5.30
2018-05-25T21:15:07.503Z,5.37
2018-05-25T21:17:35.065Z,4.90
2018-05-25T21:20:02.665Z,5.40
2018-05-25T21:22:30.144Z,5.27
2018-05-25T21:24:57.597Z,5.17
2018-05-25T21:27:25.067Z,5.20
2018-05-25T21:29:53.763Z,5.20
2018-05-25T21:32:22.553Z,5.53
2018-05-25T21:34:50.780Z,4.90
2018-05-25T21:37:18.251Z,4.80
2018-05-25T21:39:45.761Z,4.70
2018-05-25T21:42:13.242Z,5.30
2018-05-25T21:44:40.698Z,5.00
2018-05-25T21:47:08.187Z,4.95
2018-05-25T21:49:35.650Z,4.82
2018-05-25T21:52:03.139Z,5.73
2018-05-25T21:54:30.654Z,5.47
2018-05-25T21:56:58.129Z,5.63
2018-05-25T21:59:25.618Z,5.03
2018-05-25T22:01:53.113Z,5.40
2018-05-25T22:04:20.597Z,5.53
2018-05-25T22:06:48.073Z,6.53
2018-05-25T22:09:16.327Z,6.60
2018-05-25T22:11:43.800Z,6.27
2018-05-25T22:14:12.069Z,6.37
2018-05-25T22:16:39.598Z,6.97
2018-05-25T22:19:07.778Z,6.40
2018-05-25T22:21:35.669Z,6.53
2018-05-25T22:24:03.137Z,7.17
2018-05-25T22:26:31.132Z,6.80
2018-05-25T22:28:58.613Z,6.40
2018-05-25T22:31:26.106Z,5.85
2018-05-25T22:33:53.563Z,7.00
2018-05-25T22:36:21.038Z,6.53
2018-05-25T22:38:48.502Z,6.50
2018-05-25T22:41:16.756Z,6.17
2018-05-25T22:43:56.200Z,8.17
2018-05-25T22:46:35.521Z,6.63
2018-05-25T22:49:15.029Z,7.10
2018-05-25T22:51:55.948Z,6.13
2018-05-25T22:54:34.535Z,6.77
2018-05-25T22:57:02.032Z,6.80
2018-05-25T22:59:30.250Z,7.20
2018-05-25T23:01:57.976Z,7.13
2018-05-25T23:04:26.224Z,7.23
2018-05-25T23:06:53.689Z,7.13
2018-05-25T23:09:21.141Z,6.67
2018-05-25T23:11:48.600Z,7.40
2018-05-25T23:14:16.084Z,6.60
2018-05-25T23:16:46.857Z,6.83
2018-05-25T23:19:14.307Z,7.10
2018-05-25T23:21:41.753Z,7.00
2018-05-25T23:24:09.212Z,6.60
2018-05-25T23:26:36.664Z,6.73
2018-05-25T23:29:04.732Z,7.60
2018-05-25T23:31:32.965Z,6.20
2018-05-25T23:34:00.426Z,6.80
2018-05-25T23:36:27.904Z,7.30
2018-05-25T23:38:56.124Z,7.53
2018-05-25T23:41:24.028Z,7.80
2018-05-25T23:43:52.921Z,7.43
2018-05-25T23:46:20.405Z,7.90
2018-05-25T23:48:48.616Z,7.57
2018-05-25T23:51:16.084Z,7.07
2018-05-25T23:53:43.541Z,7.87
2018-05-25T23:56:11.008Z,7.03
2018-05-25T23:58:38.490Z,7.87
